sensor_id;sensor_type;location;lat;lon;timestamp;pressure;altitude;pressure_sealevel;temperature;humidity
54806;BME280;62866;55.776;37.496;2024-02-14T00:01:22;100764.53;;;-10.51;81.75
54806;BME280;62866;55.776;37.496;2024-02-14T00:03:49;100771.34;;;-10.47;81.57
54806;BME280;62866;55.776;37.496;2024-02-14T00:06:14;100770.63;;;-10.53;81.10
54806;BME280;62866;55.776;37.496;2024-02-14T00:08:40;100770.72;;;-10.58;81.26
54806;BME280;62866;55.776;37.496;2024-02-14T00:11:05;100769.03;;;-10.59;81.24
54806;BME280;62866;55.776;37.496;2024-02-14T00:13:31;100771.63;;;-10.60;81.76
54806;BME280;62866;55.776;37.496;2024-02-14T00:16:00;100775.03;;;-10.58;81.53
54806;BME280;62866;55.776;37.496;2024-02-14T00:18:26;100768.22;;;-10.62;81.96
54806;BME280;62866;55.776;37.496;2024-02-14T00:20:51;100770.75;;;-10.59;82.16
54806;BME280;62866;55.776;37.496;2024-02-14T00:23:17;100772.50;;;-10.61;81.96
54806;BME280;62866;55.776;37.496;2024-02-14T00:25:42;100772.59;;;-10.64;81.98
54806;BME280;62866;55.776;37.496;2024-02-14T00:28:07;100776.88;;;-10.63;82.37
54806;BME280;62866;55.776;37.496;2024-02-14T00:30:33;100770.88;;;-10.64;82.33
54806;BME280;62866;55.776;37.496;2024-02-14T00:32:59;100782.06;;;-10.63;82.29
54806;BME280;62866;55.776;37.496;2024-02-14T00:35:25;100782.97;;;-10.67;82.07
54806;BME280;62866;55.776;37.496;2024-02-14T00:37:50;100781.31;;;-10.70;82.09
54806;BME280;62866;55.776;37.496;2024-02-14T00:40:17;100774.28;;;-10.63;82.25
54806;BME280;62866;55.776;37.496;2024-02-14T00:42:43;100773.53;;;-10.68;81.74
54806;BME280;62866;55.776;37.496;2024-02-14T00:45:09;100780.41;;;-10.67;81.06
54806;BME280;62866;55.776;37.496;2024-02-14T00:47:35;100787.41;;;-10.72;81.15
54806;BME280;62866;55.776;37.496;2024-02-14T00:50:01;100797.78;;;-10.76;81.06
54806;BME280;62866;55.776;37.496;2024-02-14T00:52:27;100785.88;;;-10.83;81.33
54806;BME280;62866;55.776;37.496;2024-02-14T00:54:53;100792.78;;;-10.83;81.41
54806;BME280;62866;55.776;37.496;2024-02-14T00:57:18;100791.03;;;-10.83;81.65
54806;BME280;62866;55.776;37.496;2024-02-14T00:59:44;100786.75;;;-10.84;81.77
54806;BME280;62866;55.776;37.496;2024-02-14T01:02:10;100788.47;;;-10.84;81.55
54806;BME280;62866;55.776;37.496;2024-02-14T01:04:36;100788.63;;;-10.90;81.74
54806;BME280;62866;55.776;37.496;2024-02-14T01:07:03;100798.94;;;-10.90;81.94
54806;BME280;62866;55.776;37.496;2024-02-14T01:09:28;100794.69;;;-10.94;81.96
54806;BME280;62866;55.776;37.496;2024-02-14T01:11:54;100793.75;;;-10.89;82.08
54806;BME280;62866;55.776;37.496;2024-02-14T01:14:19;100792.81;;;-10.86;81.73
54806;BME280;62866;55.776;37.496;2024-02-14T01:16:46;100789.38;;;-10.87;81.91
54806;BME280;62866;55.776;37.496;2024-02-14T01:19:12;100799.69;;;-10.85;81.78
54806;BME280;62866;55.776;37.496;2024-02-14T01:21:38;100794.56;;;-10.87;81.52
54806;BME280;62866;55.776;37.496;2024-02-14T01:24:04;100791.25;;;-10.95;81.75
54806;BME280;62866;55.776;37.496;2024-02-14T01:26:31;100794.69;;;-10.94;81.89
54806;BME280;62866;55.776;37.496;2024-02-14T01:28:56;100803.38;;;-10.97;81.54
54806;BME280;62866;55.776;37.496;2024-02-14T01:31:22;100796.50;;;-10.98;81.87
54806;BME280;62866;55.776;37.496;2024-02-14T01:33:47;100801.69;;;-10.98;81.63
54806;BME280;62866;55.776;37.496;2024-02-14T01:36:13;100808.56;;;-10.98;81.74
54806;BME280;62866;55.776;37.496;2024-02-14T01:38:38;100811.94;;;-10.95;81.50
54806;BME280;62866;55.776;37.496;2024-02-14T01:41:05;100805.16;;;-11.00;81.37
54806;BME280;62866;55.776;37.496;2024-02-14T01:43:30;100806.06;;;-11.03;81.43
54806;BME280;62866;55.776;37.496;2024-02-14T01:46:04;100822.38;;;-11.01;81.28
54806;BME280;62866;55.776;37.496;2024-02-14T01:48:30;100825.13;;;-11.10;81.54
54806;BME280;62866;55.776;37.496;2024-02-14T01:50:56;100821.84;;;-11.18;81.47
54806;BME280;62866;55.776;37.496;2024-02-14T01:53:21;100819.22;;;-11.17;81.48
54806;BME280;62866;55.776;37.496;2024-02-14T01:55:47;100824.41;;;-11.18;81.77
54806;BME280;62866;55.776;37.496;2024-02-14T01:58:13;100828.72;;;-11.19;81.77
54806;BME280;62866;55.776;37.496;2024-02-14T02:00:39;100833.09;;;-11.22;81.83
54806;BME280;62866;55.776;37.496;2024-02-14T02:03:04;100826.25;;;-11.23;81.63
54806;BME280;62866;55.776;37.496;2024-02-14T02:05:30;100833.13;;;-11.24;81.09
54806;BME280;62866;55.776;37.496;2024-02-14T02:07:55;100829.84;;;-11.33;81.64
54806;BME280;62866;55.776;37.496;2024-02-14T02:10:21;100833.28;;;-11.33;81.25
54806;BME280;62866;55.776;37.496;2024-02-14T02:12:48;100842.78;;;-11.35;81.58
54806;BME280;62866;55.776;37.496;2024-02-14T02:15:16;100841.03;;;-11.33;81.50
54806;BME280;62866;55.776;37.496;2024-02-14T02:17:41;100842.78;;;-11.35;81.56
54806;BME280;62866;55.776;37.496;2024-02-14T02:20:07;100841.88;;;-11.32;81.62
54806;BME280;62866;55.776;37.496;2024-02-14T02:22:34;100844.44;;;-11.31;81.44
54806;BME280;62866;55.776;37.496;2024-02-14T02:25:03;100842.75;;;-11.33;81.17
54806;BME280;62866;55.776;37.496;2024-02-14T02:27:33;100852.25;;;-11.37;80.76
54806;BME280;62866;55.776;37.496;2024-02-14T02:30:00;100854.81;;;-11.35;80.95
54806;BME280;62866;55.776;37.496;2024-02-14T02:32:26;100855.69;;;-11.35;81.22
54806;BME280;62866;55.776;37.496;2024-02-14T02:34:51;100847.19;;;-11.40;81.31
54806;BME280;62866;55.776;37.496;2024-02-14T02:37:17;100855.66;;;-11.33;81.55
54806;BME280;62866;55.776;37.496;2024-02-14T02:39:44;100859.06;;;-11.31;81.20
54806;BME280;62866;55.776;37.496;2024-02-14T02:42:09;100863.38;;;-11.32;81.14
54806;BME280;62866;55.776;37.496;2024-02-14T02:44:38;100860.06;;;-11.40;80.80
54806;BME280;62866;55.776;37.496;2024-02-14T02:47:04;100861.91;;;-11.46;81.28
54806;BME280;62866;55.776;37.496;2024-02-14T02:49:29;100866.88;;;-11.36;80.89
54806;BME280;62866;55.776;37.496;2024-02-14T02:51:55;100865.22;;;-11.38;80.82
54806;BME280;62866;55.776;37.496;2024-02-14T02:54:20;100869.53;;;-11.39;80.82
54806;BME280;62866;55.776;37.496;2024-02-14T02:56:49;100871.25;;;-11.39;80.91
54806;BME280;62866;55.776;37.496;2024-02-14T02:59:14;100872.91;;;-11.37;81.25
54806;BME280;62866;55.776;37.496;2024-02-14T03:01:42;100869.53;;;-11.39;81.10
54806;BME280;62866;55.776;37.496;2024-02-14T03:04:07;100873.84;;;-11.41;80.94
54806;BME280;62866;55.776;37.496;2024-02-14T03:06:33;100866.97;;;-11.40;81.00
54806;BME280;62866;55.776;37.496;2024-02-14T03:08:59;100876.41;;;-11.39;81.06
54806;BME280;62866;55.776;37.496;2024-02-14T03:11:24;100877.34;;;-11.45;81.11
54806;BME280;62866;55.776;37.496;2024-02-14T03:13:53;100864.59;;;-11.54;81.13
54806;BME280;62866;55.776;37.496;2024-02-14T03:16:18;100869.69;;;-11.49;81.01
54806;BME280;62866;55.776;37.496;2024-02-14T03:18:44;100881.72;;;-11.48;81.33
54806;BME280;62866;55.776;37.496;2024-02-14T03:21:09;100876.53;;;-11.47;81.26
54806;BME280;62866;55.776;37.496;2024-02-14T03:23:40;100880.00;;;-11.48;81.44
54806;BME280;62866;55.776;37.496;2024-02-14T03:26:06;100887.75;;;-11.49;81.28
54806;BME280;62866;55.776;37.496;2024-02-14T03:28:33;100879.97;;;-11.46;81.32
54806;BME280;62866;55.776;37.496;2024-02-14T03:30:59;100877.50;;;-11.54;81.00
54806;BME280;62866;55.776;37.496;2024-02-14T03:33:24;100894.69;;;-11.55;81.11
54806;BME280;62866;55.776;37.496;2024-02-14T03:35:50;100895.66;;;-11.60;81.03
54806;BME280;62866;55.776;37.496;2024-02-14T03:38:33;100890.59;;;-11.68;81.48
54806;BME280;62866;55.776;37.496;2024-02-14T03:40:59;100894.88;;;-11.65;81.62
54806;BME280;62866;55.776;37.496;2024-02-14T03:43:24;100905.31;;;-11.73;81.55
54806;BME280;62866;55.776;37.496;2024-02-14T03:45:50;100900.09;;;-11.70;81.51
54806;BME280;62866;55.776;37.496;2024-02-14T03:48:17;100899.34;;;-11.75;81.35
54806;BME280;62866;55.776;37.496;2024-02-14T03:50:42;100895.00;;;-11.73;81.46
54806;BME280;62866;55.776;37.496;2024-02-14T03:53:08;100899.22;;;-11.70;81.64
54806;BME280;62866;55.776;37.496;2024-02-14T03:55:36;100900.22;;;-11.76;81.59
54806;BME280;62866;55.776;37.496;2024-02-14T03:58:02;100902.81;;;-11.77;81.54
54806;BME280;62866;55.776;37.496;2024-02-14T04:00:29;100904.47;;;-11.73;81.80
54806;BME280;62866;55.776;37.496;2024-02-14T04:02:55;100902.78;;;-11.76;81.35
54806;BME280;62866;55.776;37.496;2024-02-14T04:05:27;100908.81;;;-11.75;81.48
54806;BME280;62866;55.776;37.496;2024-02-14T04:07:54;100903.72;;;-11.80;81.29
54806;BME280;62866;55.776;37.496;2024-02-14T04:10:20;100909.75;;;-11.81;81.31
54806;BME280;62866;55.776;37.496;2024-02-14T04:12:46;100908.06;;;-11.83;81.73
54806;BME280;62866;55.776;37.496;2024-02-14T04:15:11;100910.63;;;-11.80;81.72
54806;BME280;62866;55.776;37.496;2024-02-14T04:17:39;100913.25;;;-11.86;81.79
54806;BME280;62866;55.776;37.496;2024-02-14T04:20:05;100919.16;;;-11.78;81.54
54806;BME280;62866;55.776;37.496;2024-02-14T04:22:30;100920.94;;;-11.82;81.38
54806;BME280;62866;55.776;37.496;2024-02-14T04:24:56;100907.97;;;-11.77;80.67
54806;BME280;62866;55.776;37.496;2024-02-14T04:27:21;100911.47;;;-11.81;80.26
54806;BME280;62866;55.776;37.496;2024-02-14T04:29:47;100917.56;;;-11.87;80.20
54806;BME280;62866;55.776;37.496;2024-02-14T04:32:13;100924.50;;;-11.91;80.39
54806;BME280;62866;55.776;37.496;2024-02-14T04:34:39;100903.16;;;-12.03;80.81
54806;BME280;62866;55.776;37.496;2024-02-14T04:37:05;100921.09;;;-11.93;80.86
54806;BME280;62866;55.776;37.496;2024-02-14T04:39:38;100910.91;;;-12.05;81.07
54806;BME280;62866;55.776;37.496;2024-02-14T04:42:04;100927.97;;;-11.95;81.16
54806;BME280;62866;55.776;37.496;2024-02-14T04:44:30;100937.38;;;-11.89;80.98
54806;BME280;62866;55.776;37.496;2024-02-14T04:47:00;100932.25;;;-11.91;81.21
54806;BME280;62866;55.776;37.496;2024-02-14T04:49:26;100936.63;;;-11.97;81.17
54806;BME280;62866;55.776;37.496;2024-02-14T04:51:52;100926.44;;;-12.08;81.47
54806;BME280;62866;55.776;37.496;2024-02-14T04:54:18;100940.00;;;-11.95;81.69
54806;BME280;62866;55.776;37.496;2024-02-14T04:56:44;100941.72;;;-11.94;81.62
54806;BME280;62866;55.776;37.496;2024-02-14T04:59:11;100956.28;;;-11.88;81.48
54806;BME280;62866;55.776;37.496;2024-02-14T05:01:36;100955.38;;;-11.87;81.57
54806;BME280;62866;55.776;37.496;2024-02-14T05:04:02;100957.06;;;-11.82;81.14
54806;BME280;62866;55.776;37.496;2024-02-14T05:06:28;100944.16;;;-11.83;81.16
54806;BME280;62866;55.776;37.496;2024-02-14T05:08:54;100965.56;;;-11.77;80.90
54806;BME280;62866;55.776;37.496;2024-02-14T05:11:19;100972.53;;;-11.82;80.75
54806;BME280;62866;55.776;37.496;2024-02-14T05:13:45;100970.81;;;-11.81;80.94
54806;BME280;62866;55.776;37.496;2024-02-14T05:16:12;100970.84;;;-11.86;80.96
54806;BME280;62866;55.776;37.496;2024-02-14T05:18:38;100970.81;;;-11.81;81.06
54806;BME280;62866;55.776;37.496;2024-02-14T05:21:07;100966.34;;;-11.72;80.24
54806;BME280;62866;55.776;37.496;2024-02-14T05:23:36;100963.69;;;-11.66;79.96
54806;BME280;62866;55.776;37.496;2024-02-14T05:26:05;100967.97;;;-11.65;79.83
54806;BME280;62866;55.776;37.496;2024-02-14T05:28:30;100961.81;;;-11.56;79.90
54806;BME280;62866;55.776;37.496;2024-02-14T05:30:57;100972.75;;;-11.39;78.94
54806;BME280;62866;55.776;37.496;2024-02-14T05:33:22;100967.53;;;-11.36;78.94
54806;BME280;62866;55.776;37.496;2024-02-14T05:35:49;100962.44;;;-11.40;79.27
54806;BME280;62866;55.776;37.496;2024-02-14T05:38:15;100971.66;;;-11.24;79.53
54806;BME280;62866;55.776;37.496;2024-02-14T05:40:41;100978.41;;;-11.14;79.46
54806;BME280;62866;55.776;37.496;2024-02-14T05:43:09;100985.34;;;-11.19;79.59
54806;BME280;62866;55.776;37.496;2024-02-14T05:45:35;100985.22;;;-11.10;79.27
54806;BME280;62866;55.776;37.496;2024-02-14T05:48:00;100980.88;;;-11.08;79.57
54806;BME280;62866;55.776;37.496;2024-02-14T05:50:26;100980.75;;;-10.99;79.23
54806;BME280;62866;55.776;37.496;2024-02-14T05:52:52;100988.22;;;-10.82;78.39
54806;BME280;62866;55.776;37.496;2024-02-14T05:55:17;100991.50;;;-10.72;77.40
54806;BME280;62866;55.776;37.496;2024-02-14T05:57:43;100981.19;;;-10.74;77.05
54806;BME280;62866;55.776;37.496;2024-02-14T06:00:09;100971.81;;;-10.80;76.87
54806;BME280;62866;55.776;37.496;2024-02-14T06:02:36;101001.69;;;-10.63;75.66
54806;BME280;62866;55.776;37.496;2024-02-14T06:05:01;100995.56;;;-10.59;75.79
54806;BME280;62866;55.776;37.496;2024-02-14T06:07:27;100997.28;;;-10.58;75.10
54806;BME280;62866;55.776;37.496;2024-02-14T06:09:53;100993.81;;;-10.57;75.54
54806;BME280;62866;55.776;37.496;2024-02-14T06:12:19;100994.56;;;-10.51;76.23
54806;BME280;62866;55.776;37.496;2024-02-14T06:14:48;101002.84;;;-10.32;76.33
54806;BME280;62866;55.776;37.496;2024-02-14T06:17:14;100990.66;;;-10.27;75.83
54806;BME280;62866;55.776;37.496;2024-02-14T06:19:39;101002.34;;;-10.09;75.98
54806;BME280;62866;55.776;37.496;2024-02-14T06:22:05;101011.81;;;-10.08;75.78
54806;BME280;62866;55.776;37.496;2024-02-14T06:24:30;101008.09;;;-9.95;75.23
54806;BME280;62866;55.776;37.496;2024-02-14T06:26:56;101008.06;;;-9.92;73.56
54806;BME280;62866;55.776;37.496;2024-02-14T06:29:21;101005.41;;;-9.87;73.36
54806;BME280;62866;55.776;37.496;2024-02-14T06:31:47;101002.84;;;-9.89;73.60
54806;BME280;62866;55.776;37.496;2024-02-14T06:34:12;101004.59;;;-9.91;73.06
54806;BME280;62866;55.776;37.496;2024-02-14T06:36:38;101008.00;;;-9.89;72.85
54806;BME280;62866;55.776;37.496;2024-02-14T06:39:04;101018.97;;;-9.78;72.89
54806;BME280;62866;55.776;37.496;2024-02-14T06:41:31;101010.97;;;-9.66;73.00
54806;BME280;62866;55.776;37.496;2024-02-14T06:43:57;101008.16;;;-9.55;72.31
54806;BME280;62866;55.776;37.496;2024-02-14T06:46:23;101011.44;;;-9.47;71.98
54806;BME280;62866;55.776;37.496;2024-02-14T06:48:49;101011.47;;;-9.48;70.96
54806;BME280;62866;55.776;37.496;2024-02-14T06:51:14;101006.97;;;-9.40;71.02
54806;BME280;62866;55.776;37.496;2024-02-14T06:53:40;101002.53;;;-9.35;71.75
54806;BME280;62866;55.776;37.496;2024-02-14T06:56:05;101009.88;;;-9.15;71.35
54806;BME280;62866;55.776;37.496;2024-02-14T06:58:31;100987.44;;;-9.16;70.58
54806;BME280;62866;55.776;37.496;2024-02-14T07:00:57;101007.03;;;-9.05;70.45
54806;BME280;62866;55.776;37.496;2024-02-14T07:03:22;101004.31;;;-9.00;71.10
54806;BME280;62866;55.776;37.496;2024-02-14T07:05:48;101006.69;;;-8.91;70.83
54806;BME280;62866;55.776;37.496;2024-02-14T07:08:14;101016.81;;;-8.80;69.88
54806;BME280;62866;55.776;37.496;2024-02-14T07:10:40;101010.88;;;-8.86;69.87
54806;BME280;62866;55.776;37.496;2024-02-14T07:13:05;101008.72;;;-8.68;69.56
54806;BME280;62866;55.776;37.496;2024-02-14T07:15:31;101011.78;;;-8.53;69.16
54806;BME280;62866;55.776;37.496;2024-02-14T07:17:56;101013.19;;;-8.39;68.43
54806;BME280;62866;55.776;37.496;2024-02-14T07:20:24;101019.06;;;-8.02;69.32
54806;BME280;62866;55.776;37.496;2024-02-14T07:22:52;101010.91;;;-7.59;69.85
54806;BME280;62866;55.776;37.496;2024-02-14T07:25:19;101010.13;;;-7.32;69.11
54806;BME280;62866;55.776;37.496;2024-02-14T07:27:45;101004.28;;;-6.58;69.41
54806;BME280;62866;55.776;37.496;2024-02-14T07:30:13;101012.00;;;-5.58;66.15
54806;BME280;62866;55.776;37.496;2024-02-14T07:32:39;101010.41;;;-5.39;62.33
54806;BME280;62866;55.776;37.496;2024-02-14T07:35:05;101015.09;;;-5.70;63.75
54806;BME280;62866;55.776;37.496;2024-02-14T07:37:31;101019.16;;;-5.63;63.98
54806;BME280;62866;55.776;37.496;2024-02-14T07:39:57;101020.53;;;-5.53;64.54
54806;BME280;62866;55.776;37.496;2024-02-14T07:42:22;101018.00;;;-5.33;62.52
54806;BME280;62866;55.776;37.496;2024-02-14T07:44:48;101015.78;;;-5.20;62.06
54806;BME280;62866;55.776;37.496;2024-02-14T07:47:13;101023.78;;;-5.25;61.18
54806;BME280;62866;55.776;37.496;2024-02-14T07:49:39;101021.19;;;-5.48;62.39
54806;BME280;62866;55.776;37.496;2024-02-14T07:52:06;101014.94;;;-5.21;62.78
54806;BME280;62866;55.776;37.496;2024-02-14T07:54:31;101015.34;;;-5.10;61.37
54806;BME280;62866;55.776;37.496;2024-02-14T07:56:57;101021.22;;;-5.26;59.85
54806;BME280;62866;55.776;37.496;2024-02-14T07:59:23;101023.75;;;-5.47;59.66
54806;BME280;62866;55.776;37.496;2024-02-14T08:01:48;101019.34;;;-5.45;60.76
54806;BME280;62866;55.776;37.496;2024-02-14T08:04:14;101016.88;;;-5.49;60.54
54806;BME280;62866;55.776;37.496;2024-02-14T08:06:41;101022.56;;;-5.61;57.47
54806;BME280;62866;55.776;37.496;2024-02-14T08:09:06;101014.72;;;-5.85;57.32
54806;BME280;62866;55.776;37.496;2024-02-14T08:11:35;101027.63;;;-6.30;57.41
54806;BME280;62866;55.776;37.496;2024-02-14T08:14:01;101027.72;;;-6.59;58.58
54806;BME280;62866;55.776;37.496;2024-02-14T08:16:28;101037.34;;;-6.87;59.76
54806;BME280;62866;55.776;37.496;2024-02-14T08:18:53;101031.25;;;-7.14;60.32
54806;BME280;62866;55.776;37.496;2024-02-14T08:21:25;101037.03;;;-7.34;61.00
54806;BME280;62866;55.776;37.496;2024-02-14T08:23:52;101038.88;;;-7.38;61.99
54806;BME280;62866;55.776;37.496;2024-02-14T08:26:18;101040.28;;;-7.28;62.86
54806;BME280;62866;55.776;37.496;2024-02-14T08:28:43;101040.75;;;-7.13;62.12
54806;BME280;62866;55.776;37.496;2024-02-14T08:31:11;101031.25;;;-7.14;61.04
54806;BME280;62866;55.776;37.496;2024-02-14T08:33:37;101040.28;;;-7.28;61.76
54806;BME280;62866;55.776;37.496;2024-02-14T08:36:06;101043.81;;;-7.29;62.02
54806;BME280;62866;55.776;37.496;2024-02-14T08:38:33;101046.41;;;-7.29;62.20
54806;BME280;62866;55.776;37.496;2024-02-14T08:40:59;101053.38;;;-7.31;61.61
54806;BME280;62866;55.776;37.496;2024-02-14T08:43:24;101049.16;;;-7.35;61.51
54806;BME280;62866;55.776;37.496;2024-02-14T08:45:51;101044.78;;;-7.33;61.90
54806;BME280;62866;55.776;37.496;2024-02-14T08:48:17;101044.81;;;-7.34;61.36
54806;BME280;62866;55.776;37.496;2024-02-14T08:50:43;101047.66;;;-7.42;61.44
54806;BME280;62866;55.776;37.496;2024-02-14T08:53:08;101052.94;;;-7.45;62.47
54806;BME280;62866;55.776;37.496;2024-02-14T08:55:35;101049.44;;;-7.44;62.44
54806;BME280;62866;55.776;37.496;2024-02-14T08:58:01;101041.59;;;-7.42;62.09
54806;BME280;62866;55.776;37.496;2024-02-14T09:00:27;101040.13;;;-7.51;62.25
54806;BME280;62866;55.776;37.496;2024-02-14T09:02:52;101053.88;;;-7.47;62.40
54806;BME280;62866;55.776;37.496;2024-02-14T09:05:18;101051.25;;;-7.46;62.00
54806;BME280;62866;55.776;37.496;2024-02-14T09:07:44;101041.00;;;-7.52;62.04
54806;BME280;62866;55.776;37.496;2024-02-14T09:10:10;101051.72;;;-7.62;62.15
54806;BME280;62866;55.776;37.496;2024-02-14T09:12:40;101050.28;;;-7.73;63.07
54806;BME280;62866;55.776;37.496;2024-02-14T09:15:09;101055.50;;;-7.74;62.91
54806;BME280;62866;55.776;37.496;2024-02-14T09:17:34;101055.47;;;-7.73;63.64
54806;BME280;62866;55.776;37.496;2024-02-14T09:20:01;101054.47;;;-7.69;63.53
54806;BME280;62866;55.776;37.496;2024-02-14T09:22:26;101051.72;;;-7.62;64.28
54806;BME280;62866;55.776;37.496;2024-02-14T09:24:52;101059.38;;;-7.58;63.68
54806;BME280;62866;55.776;37.496;2024-02-14T09:27:17;101059.41;;;-7.59;63.99
54806;BME280;62866;55.776;37.496;2024-02-14T09:29:43;101058.34;;;-7.52;64.22
54806;BME280;62866;55.776;37.496;2024-02-14T09:32:08;101056.50;;;-7.49;64.67
54806;BME280;62866;55.776;37.496;2024-02-14T09:34:34;101058.97;;;-7.44;63.30
54806;BME280;62866;55.776;37.496;2024-02-14T09:37:00;101067.88;;;-7.53;63.68
54806;BME280;62866;55.776;37.496;2024-02-14T09:39:25;101060.22;;;-7.57;63.46
54806;BME280;62866;55.776;37.496;2024-02-14T09:41:52;101040.47;;;-7.63;63.86
54806;BME280;62866;55.776;37.496;2024-02-14T09:44:20;101058.56;;;-7.60;63.96
54806;BME280;62866;55.776;37.496;2024-02-14T09:46:47;101061.91;;;-7.55;64.32
54806;BME280;62866;55.776;37.496;2024-02-14T09:49:14;101060.94;;;-7.52;64.24
54806;BME280;62866;55.776;37.496;2024-02-14T09:51:43;101066.91;;;-7.49;64.49
54806;BME280;62866;55.776;37.496;2024-02-14T09:54:10;101058.25;;;-7.49;64.90
54806;BME280;62866;55.776;37.496;2024-02-14T09:56:36;101058.06;;;-7.43;64.54
54806;BME280;62866;55.776;37.496;2024-02-14T09:59:02;101056.22;;;-7.38;64.10
54806;BME280;62866;55.776;37.496;2024-02-14T10:01:28;101068.56;;;-7.46;64.47
54806;BME280;62866;55.776;37.496;2024-02-14T10:03:54;101070.34;;;-7.48;64.63
54806;BME280;62866;55.776;37.496;2024-02-14T10:06:20;101060.81;;;-7.48;64.51
54806;BME280;62866;55.776;37.496;2024-02-14T10:08:50;101057.16;;;-7.41;64.51
54806;BME280;62866;55.776;37.496;2024-02-14T10:11:17;101058.16;;;-7.45;64.67
54806;BME280;62866;55.776;37.496;2024-02-14T10:13:46;101058.81;;;-7.38;64.90
54806;BME280;62866;55.776;37.496;2024-02-14T10:16:12;101057.59;;;-7.27;65.13
54806;BME280;62866;55.776;37.496;2024-02-14T10:18:38;101058.19;;;-7.18;64.61
54806;BME280;62866;55.776;37.496;2024-02-14T10:21:04;101048.06;;;-7.28;64.32
54806;BME280;62866;55.776;37.496;2024-02-14T10:23:30;101057.59;;;-7.27;64.48
54806;BME280;62866;55.776;37.496;2024-02-14T10:25:56;101058.34;;;-7.23;64.38
54806;BME280;62866;55.776;37.496;2024-02-14T10:28:22;101054.19;;;-7.29;64.15
54806;BME280;62866;55.776;37.496;2024-02-14T10:30:49;101068.13;;;-7.31;64.71
54806;BME280;62866;55.776;37.496;2024-02-14T10:33:18;101057.59;;;-7.27;64.39
54806;BME280;62866;55.776;37.496;2024-02-14T10:35:47;101057.34;;;-7.19;64.83
54806;BME280;62866;55.776;37.496;2024-02-14T10:38:15;101055.34;;;-7.09;64.86
54806;BME280;62866;55.776;37.496;2024-02-14T10:40:47;101057.69;;;-7.02;65.42
54806;BME280;62866;55.776;37.496;2024-02-14T10:43:12;101059.34;;;-6.99;64.33
54806;BME280;62866;55.776;37.496;2024-02-14T10:45:39;101052.50;;;-7.02;64.94
54806;BME280;62866;55.776;37.496;2024-02-14T10:48:05;101060.91;;;-6.94;64.67
54806;BME280;62866;55.776;37.496;2024-02-14T10:50:36;101061.75;;;-6.93;64.33
54806;BME280;62866;55.776;37.496;2024-02-14T10:53:06;101059.16;;;-6.93;64.34
54806;BME280;62866;55.776;37.496;2024-02-14T10:55:39;101057.16;;;-6.85;64.81
54806;BME280;62866;55.776;37.496;2024-02-14T10:58:06;101070.00;;;-6.79;64.47
54806;BME280;62866;55.776;37.496;2024-02-14T11:00:33;101050.09;;;-6.80;64.94
54806;BME280;62866;55.776;37.496;2024-02-14T11:02:59;101065.75;;;-6.81;65.12
54806;BME280;62866;55.776;37.496;2024-02-14T11:05:26;101057.78;;;-6.77;64.62
54806;BME280;62866;55.776;37.496;2024-02-14T11:07:51;101062.69;;;-6.68;64.73
54806;BME280;62866;55.776;37.496;2024-02-14T11:10:21;101054.00;;;-6.67;64.87
54806;BME280;62866;55.776;37.496;2024-02-14T11:12:47;101053.09;;;-6.66;65.08
54806;BME280;62866;55.776;37.496;2024-02-14T11:15:18;101063.25;;;-6.58;65.17
54806;BME280;62866;55.776;37.496;2024-02-14T11:17:44;101067.66;;;-6.60;64.90
54806;BME280;62866;55.776;37.496;2024-02-14T11:20:18;101053.94;;;-6.65;64.68
54806;BME280;62866;55.776;37.496;2024-02-14T11:23:02;101050.59;;;-6.69;64.61
54806;BME280;62866;55.776;37.496;2024-02-14T11:25:34;101056.28;;;-6.84;64.21
54806;BME280;62866;55.776;37.496;2024-02-14T11:28:12;101047.78;;;-6.89;64.96
54806;BME280;62866;55.776;37.496;2024-02-14T11:30:40;101042.81;;;-6.97;65.08
54806;BME280;62866;55.776;37.496;2024-02-14T11:33:12;101059.22;;;-6.95;65.20
54806;BME280;62866;55.776;37.496;2024-02-14T11:35:40;101060.88;;;-6.92;65.94
54806;BME280;62866;55.776;37.496;2024-02-14T11:38:06;101051.13;;;-6.85;66.05
54806;BME280;62866;55.776;37.496;2024-02-14T11:40:32;101050.13;;;-6.81;65.91
54806;BME280;62866;55.776;37.496;2024-02-14T11:42:58;101060.59;;;-6.83;65.47
54806;BME280;62866;55.776;37.496;2024-02-14T11:45:23;101044.41;;;-6.93;65.41
54806;BME280;62866;55.776;37.496;2024-02-14T11:47:49;101058.47;;;-6.98;65.77
54806;BME280;62866;55.776;37.496;2024-02-14T11:50:17;101053.38;;;-7.03;65.32
54806;BME280;62866;55.776;37.496;2024-02-14T11:52:43;101054.63;;;-7.14;65.73
54806;BME280;62866;55.776;37.496;2024-02-14T11:55:09;101052.00;;;-7.13;65.75
54806;BME280;62866;55.776;37.496;2024-02-14T11:57:38;101053.19;;;-7.24;66.00
54806;BME280;62866;55.776;37.496;2024-02-14T12:00:04;101061.84;;;-7.24;66.08
54806;BME280;62866;55.776;37.496;2024-02-14T12:02:30;101055.88;;;-7.28;66.61
54806;BME280;62866;55.776;37.496;2024-02-14T12:04:56;101053.47;;;-7.34;66.49
54806;BME280;62866;55.776;37.496;2024-02-14T12:07:22;101061.06;;;-7.28;66.61
54806;BME280;62866;55.776;37.496;2024-02-14T12:09:48;101053.38;;;-7.31;66.51
54806;BME280;62866;55.776;37.496;2024-02-14T12:12:15;101061.84;;;-7.24;67.09
54806;BME280;62866;55.776;37.496;2024-02-14T12:14:43;101045.22;;;-7.18;67.39
54806;BME280;62866;55.776;37.496;2024-02-14T12:17:10;101053.84;;;-7.18;66.63
54806;BME280;62866;55.776;37.496;2024-02-14T12:19:35;101047.88;;;-7.20;67.17
54806;BME280;62866;55.776;37.496;2024-02-14T12:22:10;101048.88;;;-7.25;66.60
54806;BME280;62866;55.776;37.496;2024-02-14T12:24:44;101059.47;;;-7.32;66.62
54806;BME280;62866;55.776;37.496;2024-02-14T12:27:09;101062.38;;;-7.42;67.15
54806;BME280;62866;55.776;37.496;2024-02-14T12:29:35;101058.00;;;-7.40;67.90
54806;BME280;62866;55.776;37.496;2024-02-14T12:32:07;101050.13;;;-7.37;67.55